HKJKHTMW

Guest
Details From HKJK - Nairobi Jomo Kanyatta Intl
To HTMW - MWANZA
Flight Number -
Tags generated
Created
Modified
Stats Distance 249 nm / 462 km
Max Altitude 32,400 ft / 9,876 m
Waypoints 5
Social Downloads 0
Likes 0
Share VATSIM

Download

Looking for another format? Having issues loading an existing format? Contact us
Advertisement - Login to hide

Notes

Basic altitude profile: - Ascent Rate: 2500ft/min - Ascent Speed: 250kts - Cruise Altitude: 35000ft - Cruise Speed: 420kts - Descent Rate: 1500ft/min - Descent Speed: 250kts Options: - Use NATs: yes - Use PACOTS: yes - Use low airways: yes - Use high airways: yes

Route

HKJK PARIN UG450 NIBOT HTMW

ID Type Via Altitude Latitude Longitude Leg Dist Tot Dist Heading (true) Name
O HKJK APT - 0 ft / 0 m -1.31707˚ 36.93076˚ - 0 nm - Nairobi Jomo Kanyatta Intl
PARIN FIX - 32,400 ft / 9,876 m -1.75453˚ 35.35657˚ 98 nm 98 nm 254° / 254° -
EGLOX FIX UG450 (AWY-HI) 26,500 ft / 8,077 m -1.85647˚ 34.99546˚ 22 nm 120 nm 254° / 254° -
NIBOT FIX UG450 (AWY-HI) 24,500 ft / 7,468 m -2.01423˚ 34.43739˚ 34 nm 155 nm 254° / 254° -
O HTMW APT - 0 ft / 0 m -2.44448˚ 32.93266˚ 93 nm 249 nm 254° / 254° MWANZA

Altitude Profile

Advertisement - Login to hide

Weather


0- 5 10 15 20 25 30 35+ Temperature / ° C

Clouds and Precipitation
Forecast for 2018-05-23 12:00 UTC. Updated a minute ago

Ground ~20,000 ft ~40,000 ft Winds

HKJK

Details ICAO HKJK (NBO)
Name Nairobi Jomo Kanyatta Intl
Region Kenya
Timezone Africa/Nairobi (UTC+3.0)
Stats Elevation 5,330 ft / 1,625 m (AMSL)
Location -1.317073° 36.930757°
Runways 1
Magnetic Variation 0.591° E

METAR

HKJK 230900Z 14009KT 9999 BKN022 21/15 Q1024

Decode

TAF

TAF HKJK 230500Z 2306/2412 14005KT 9999 -DZ FEW003 BKN015 BKN090 BECMG 2306/2309 BKN019 BKN090 BECMG 2309/2315 FEW021CB BKN020 BKN090 BECMG 2315/2318 04008KT BECMG 2400/2403 34005KT

Decode

Departure Runways

ID Width Length Bearing (true) Bearing (mag) Surface Threshold Offset Overrun Length
06 148 ft / 45 m 13,215 ft / 4,028 m 53.90° 53.31° Asphalt 0 ft / 0 m 194 ft / 59 m
24 148 ft / 45 m 13,215 ft / 4,028 m 233.90° 233.31° Asphalt 0 ft / 0 m 197 ft / 60 m

HTMW

Details ICAO HTMW (MWZ)
Name MWANZA
Region Tanzania
Timezone Africa/Dar_es_Salaam (UTC+3.0)
Stats Elevation 3,763 ft / 1,147 m (AMSL)
Location -2.444485° 32.932665°
Runways 1
Magnetic Variation 0.891° E

METAR

HTMW 230800Z 08010KT 9999 FEW024 26/17 Q1019 NOSIG

Decode

TAF

HTMW 230500Z 2306/2406 12010KT 9999 FEW023 FEW024CB SCT100 BECMG 2311/2313 30010KT BECMG 2401/2403 13010KT

Decode

Destination Runways

ID Width Length Bearing (true) Bearing (mag) Surface Threshold Offset Overrun Length
12 148 ft / 45 m 10,223 ft / 3,116 m 116.54° 115.65° Asphalt 300 ft / 91 m 615 ft / 187 m
30 148 ft / 45 m 10,223 ft / 3,116 m 296.54° 295.65° Asphalt 0 ft / 0 m 0 ft / 0 m

Popular Alternatives